Ricketts, Iowa
Current Conditions -  °F | °C
As of 5:15 AM on Monday 22 Dec 2014 (Local Time) from KDNS Reporting Station
Unknown Precip Unknown Precip  
Wind Chill: 32°   Ceiling: 600
Heat Index: 41°   Visibility: 3mi
Dew Point: 41°   Wind: 17mph
Humidity: 100%   Direction: 160°SSE
Pressure: 29.54"   Gusts: NA
Location:  42.13°N, 95.58°W
Report Text: KDNS 221115Z AUTO 16015KT 3SM -UP OVC006 05/05 A2954 RMK AO2
Loading
Personal Weather Stations






























Interactive Weather Map New forecast layout! Learn more

10-Day Weather Forecast

Advertisements
Track Severe Weather on mobile